createdAt,value
2019-05-10T00:00:55.683Z,88.99
2019-05-10T00:03:41.839Z,88.90
2019-05-10T00:06:30.181Z,88.87
2019-05-10T00:08:57.876Z,88.61
2019-05-10T00:11:27.993Z,88.63
2019-05-10T00:13:58.065Z,88.57
2019-05-10T00:16:26.944Z,88.48
2019-05-10T00:18:55.361Z,88.54
2019-05-10T00:21:23.822Z,88.61
2019-05-10T00:23:52.527Z,88.70
2019-05-10T00:26:22.510Z,88.88
2019-05-10T00:28:51.014Z,88.89
2019-05-10T00:31:19.488Z,88.89
2019-05-10T00:33:47.939Z,88.79
2019-05-10T00:36:18.952Z,88.80
2019-05-10T00:38:47.447Z,88.75
2019-05-10T00:41:17.416Z,88.70
2019-05-10T00:43:45.905Z,88.80
2019-05-10T00:46:14.356Z,88.80
2019-05-10T00:48:44.278Z,88.79
2019-05-10T00:51:16.050Z,88.84
2019-05-10T00:53:44.546Z,88.84
2019-05-10T00:56:13.037Z,88.85
2019-05-10T00:58:41.466Z,88.82
2019-05-10T01:01:10.578Z,88.78
2019-05-10T01:03:41.099Z,88.83
2019-05-10T01:06:11.105Z,88.81
2019-05-10T01:08:41.009Z,88.81
2019-05-10T01:11:10.957Z,88.75
2019-05-10T01:13:39.454Z,88.74
2019-05-10T01:16:07.890Z,88.75
2019-05-10T01:18:37.884Z,88.77
2019-05-10T01:21:07.788Z,88.86
2019-05-10T01:23:36.206Z,88.99
2019-05-10T01:26:04.755Z,89.05
2019-05-10T01:28:33.172Z,88.96
2019-05-10T01:31:01.580Z,89.04
2019-05-10T01:33:31.578Z,89.17
2019-05-10T01:35:59.985Z,89.18
2019-05-10T01:38:28.431Z,89.29
2019-05-10T01:40:56.837Z,89.42
2019-05-10T01:43:25.311Z,89.44
2019-05-10T01:45:53.749Z,89.36
2019-05-10T01:48:22.196Z,89.27
2019-05-10T01:50:50.630Z,89.34
2019-05-10T01:53:19.054Z,89.43
2019-05-10T01:55:52.094Z,89.55
2019-05-10T01:58:17.647Z,89.53
2019-05-10T02:00:46.071Z,89.46
2019-05-10T02:03:14.585Z,89.36
2019-05-10T02:05:43.004Z,89.30
2019-05-10T02:08:11.516Z,89.35
2019-05-10T02:10:40.809Z,89.33
2019-05-10T02:13:10.948Z,89.31
2019-05-10T02:15:39.445Z,89.32
2019-05-10T02:18:07.853Z,89.51
2019-05-10T02:20:37.814Z,89.63
2019-05-10T02:23:06.211Z,89.67
2019-05-10T02:25:34.794Z,89.77
2019-05-10T02:28:03.247Z,89.85
2019-05-10T02:30:31.698Z,89.92
2019-05-10T02:33:00.120Z,89.97
2019-05-10T02:35:28.571Z,89.98
2019-05-10T02:38:00.188Z,90.01
2019-05-10T02:40:28.632Z,90.01
2019-05-10T02:42:59.442Z,90.01
2019-05-10T02:45:27.952Z,90.03
2019-05-10T02:47:56.397Z,89.96
2019-05-10T02:50:24.834Z,89.88
2019-05-10T02:52:53.832Z,89.89
2019-05-10T02:55:23.712Z,89.97
2019-05-10T02:57:57.633Z,90.14
2019-05-10T03:00:26.724Z,90.26
2019-05-10T03:02:56.581Z,90.32
2019-05-10T03:05:27.600Z,90.40
2019-05-10T03:07:58.306Z,90.31
2019-05-10T03:10:29.778Z,90.30
2019-05-10T03:12:59.711Z,90.25
2019-05-10T03:15:31.197Z,90.26
2019-05-10T03:18:02.909Z,90.28
2019-05-10T03:20:33.615Z,90.29
2019-05-10T03:23:04.167Z,90.30
2019-05-10T03:25:34.111Z,90.38
2019-05-10T03:28:02.529Z,90.52
2019-05-10T03:30:31.049Z,90.63
2019-05-10T03:32:59.638Z,90.73
2019-05-10T03:35:28.337Z,90.75
2019-05-10T03:37:56.892Z,90.78
2019-05-10T03:40:25.341Z,90.75
2019-05-10T03:42:53.941Z,90.74
2019-05-10T03:45:22.441Z,90.79
2019-05-10T03:47:50.842Z,90.84
2019-05-10T03:50:19.240Z,90.87
2019-05-10T03:52:52.125Z,90.79
2019-05-10T03:55:17.806Z,90.84
2019-05-10T03:57:46.301Z,90.83
2019-05-10T04:00:15.071Z,90.90
2019-05-10T04:02:43.581Z,90.92
2019-05-10T04:05:14.987Z,90.94
2019-05-10T04:07:44.935Z,90.89
2019-05-10T04:10:14.149Z,90.85
2019-05-10T04:12:42.542Z,90.80
2019-05-10T04:15:12.978Z,90.79
2019-05-10T04:17:41.468Z,90.81
2019-05-10T04:20:10.297Z,90.84
2019-05-10T04:22:38.753Z,90.64
2019-05-10T04:25:09.194Z,90.64
2019-05-10T04:27:37.608Z,90.76
2019-05-10T04:30:07.671Z,90.76
2019-05-10T04:32:37.795Z,90.73
2019-05-10T04:35:07.727Z,90.71
2019-05-10T04:37:36.177Z,90.69
2019-05-10T04:40:09.273Z,90.66
2019-05-10T04:42:37.844Z,90.65
2019-05-10T04:45:07.091Z,90.65
2019-05-10T04:47:35.568Z,90.67
2019-05-10T04:50:05.707Z,90.60
2019-05-10T04:52:34.106Z,90.57
2019-05-10T04:55:02.551Z,90.55
2019-05-10T04:57:47.973Z,90.46
2019-05-10T05:00:01.151Z,90.20
2019-05-10T05:02:32.396Z,89.80
2019-05-10T05:05:02.622Z,89.57
2019-05-10T05:07:32.602Z,89.25
2019-05-10T05:10:01.174Z,89.22
2019-05-10T05:12:29.596Z,89.04
2019-05-10T05:14:59.554Z,89.33
2019-05-10T05:17:27.961Z,88.61
2019-05-10T05:19:58.045Z,89.22
2019-05-10T05:22:26.479Z,89.49
2019-05-10T05:25:00.444Z,89.46
2019-05-10T05:27:27.067Z,89.47
2019-05-10T05:29:55.692Z,89.75
2019-05-10T05:32:24.120Z,89.47
2019-05-10T05:34:52.720Z,89.46
2019-05-10T05:37:21.230Z,89.39
2019-05-10T05:39:49.601Z,89.17
2019-05-10T05:42:22.304Z,88.98
2019-05-10T05:44:48.141Z,88.83
2019-05-10T05:47:18.277Z,88.08
2019-05-10T05:49:46.686Z,86.77
2019-05-10T05:52:15.982Z,85.36
2019-05-10T05:54:44.428Z,84.20
2019-05-10T05:57:12.867Z,83.71
2019-05-10T05:59:41.368Z,82.38
2019-05-10T06:02:09.878Z,81.84
2019-05-10T06:04:40.760Z,82.30
2019-05-10T06:07:08.512Z,82.06
2019-05-10T06:09:39.385Z,81.65
2019-05-10T06:12:12.630Z,80.94
2019-05-10T06:14:43.063Z,80.17
2019-05-10T06:17:10.821Z,80.30
2019-05-10T06:19:39.206Z,80.03
2019-05-10T06:22:07.625Z,78.46
2019-05-10T06:24:36.302Z,78.30
2019-05-10T06:27:05.125Z,78.81
2019-05-10T06:29:33.567Z,78.45
2019-05-10T06:32:01.992Z,79.09
2019-05-10T06:34:31.788Z,79.55
2019-05-10T06:37:02.159Z,79.41
2019-05-10T06:39:30.677Z,79.56
2019-05-10T06:41:59.075Z,80.20
2019-05-10T06:44:31.144Z,80.62
2019-05-10T06:47:02.033Z,80.48
2019-05-10T06:49:32.116Z,80.27
2019-05-10T06:52:00.693Z,80.35
2019-05-10T06:54:29.116Z,79.68
2019-05-10T06:56:57.526Z,78.84
2019-05-10T06:59:26.367Z,77.80
2019-05-10T07:01:55.069Z,78.85
2019-05-10T07:04:23.518Z,78.82
2019-05-10T07:06:56.286Z,77.67
2019-05-10T07:09:26.277Z,76.41
2019-05-10T07:11:54.730Z,75.25
2019-05-10T07:14:25.578Z,74.64
2019-05-10T07:16:56.526Z,72.34
2019-05-10T07:19:23.500Z,73.11
2019-05-10T07:21:51.941Z,70.89
2019-05-10T07:24:25.298Z,70.06
2019-05-10T07:26:50.705Z,69.39
2019-05-10T07:29:29.976Z,68.85
2019-05-10T07:31:53.134Z,68.17
2019-05-10T07:34:21.633Z,68.96
2019-05-10T07:36:50.130Z,68.52
2019-05-10T07:39:18.562Z,68.22
2019-05-10T07:41:46.996Z,68.67
2019-05-10T07:44:16.287Z,67.85
2019-05-10T07:46:46.428Z,69.45
2019-05-10T07:49:14.941Z,68.02
2019-05-10T07:51:43.345Z,68.51
2019-05-10T07:54:11.817Z,68.32
2019-05-10T07:56:45.891Z,67.79
2019-05-10T07:59:10.392Z,66.03
2019-05-10T08:01:38.875Z,66.26
2019-05-10T08:04:09.018Z,66.32
2019-05-10T08:06:43.438Z,64.50
2019-05-10T08:09:09.927Z,60.08
2019-05-10T08:11:39.187Z,62.92
2019-05-10T08:14:11.063Z,65.04
2019-05-10T08:16:38.783Z,62.57
2019-05-10T08:19:09.001Z,62.75
2019-05-10T08:21:37.506Z,59.32
2019-05-10T08:24:13.335Z,59.69
2019-05-10T08:26:36.728Z,63.50
2019-05-10T08:29:07.607Z,60.99
2019-05-10T08:31:40.329Z,63.00
2019-05-10T08:34:06.969Z,65.21
2019-05-10T08:36:37.195Z,63.66
2019-05-10T08:39:10.740Z,61.24
2019-05-10T08:41:36.752Z,63.25
2019-05-10T08:44:16.556Z,60.22
2019-05-10T08:46:41.238Z,61.20
2019-05-10T08:49:07.102Z,60.39
2019-05-10T08:51:43.869Z,61.30
2019-05-10T08:54:07.424Z,63.11
2019-05-10T08:56:35.797Z,62.80
2019-05-10T08:59:09.398Z,62.69
2019-05-10T09:01:44.804Z,66.05
2019-05-10T09:04:07.133Z,68.17
2019-05-10T09:06:36.370Z,70.74
2019-05-10T09:09:08.519Z,72.44
2019-05-10T09:11:37.147Z,74.02
2019-05-10T09:14:12.329Z,74.79
2019-05-10T09:16:43.387Z,75.62
2019-05-10T09:19:07.952Z,75.61
2019-05-10T09:21:40.962Z,75.50
2019-05-10T09:24:12.842Z,75.61
2019-05-10T09:26:41.909Z,75.00
2019-05-10T09:29:12.152Z,76.12
2019-05-10T09:31:48.619Z,75.92
2019-05-10T09:34:12.496Z,76.11
2019-05-10T09:36:44.943Z,75.46
2019-05-10T09:39:17.554Z,74.07
2019-05-10T09:41:42.122Z,73.13
2019-05-10T09:44:13.087Z,73.28
2019-05-10T09:46:42.342Z,78.83
2019-05-10T09:49:15.602Z,61.84
2019-05-10T09:51:42.301Z,61.84
2019-05-10T09:54:11.138Z,67.31
2019-05-10T09:56:44.291Z,65.81
2019-05-10T09:59:09.766Z,66.46
2019-05-10T10:01:38.238Z,61.90
2019-05-10T10:04:06.773Z,63.06
2019-05-10T10:06:36.954Z,63.38
2019-05-10T10:09:10.897Z,63.38
2019-05-10T10:11:38.167Z,65.35
2019-05-10T10:14:07.931Z,64.81
2019-05-10T10:16:36.762Z,66.70
2019-05-10T10:19:07.159Z,66.25
2019-05-10T10:21:38.927Z,62.07
2019-05-10T10:24:15.694Z,63.71
2019-05-10T10:26:38.005Z,62.97
2019-05-10T10:29:07.360Z,63.42
2019-05-10T10:31:48.288Z,64.13
2019-05-10T10:34:07.594Z,59.86
2019-05-10T10:36:40.108Z,57.47
2019-05-10T10:39:09.080Z,58.29
2019-05-10T10:41:37.499Z,60.44
2019-05-10T10:44:08.259Z,61.81
2019-05-10T10:46:36.184Z,63.71
2019-05-10T10:49:05.531Z,64.78
2019-05-10T10:51:34.645Z,68.35
2019-05-10T10:54:03.553Z,71.03
2019-05-10T10:56:31.948Z,73.48
2019-05-10T10:59:01.927Z,75.62
2019-05-10T11:01:46.170Z,76.57
2019-05-10T11:04:07.862Z,77.59
2019-05-10T11:06:32.522Z,76.12
2019-05-10T11:09:01.865Z,73.26
2019-05-10T11:11:38.804Z,75.29
2019-05-10T11:14:07.323Z,75.26
2019-05-10T11:16:32.714Z,77.29
2019-05-10T11:19:03.804Z,77.94
2019-05-10T11:21:33.480Z,77.49
2019-05-10T11:24:01.735Z,76.62
2019-05-10T11:26:32.786Z,77.69
2019-05-10T11:29:01.337Z,74.64
2019-05-10T11:31:31.201Z,73.79
2019-05-10T11:34:01.850Z,75.67
2019-05-10T11:36:31.236Z,75.16
2019-05-10T11:39:01.562Z,71.85
2019-05-10T11:41:31.665Z,70.34
2019-05-10T11:44:05.461Z,73.81
2019-05-10T11:46:31.075Z,75.87
2019-05-10T11:49:01.730Z,76.74
2019-05-10T11:51:31.526Z,77.62
2019-05-10T11:54:00.119Z,78.93
2019-05-10T11:56:32.382Z,79.90
2019-05-10T11:59:02.492Z,80.17
2019-05-10T12:01:31.197Z,80.41
2019-05-10T12:04:04.740Z,81.71
2019-05-10T12:06:32.002Z,82.01
2019-05-10T12:09:06.606Z,83.18
2019-05-10T12:11:43.792Z,83.22
2019-05-10T12:14:05.603Z,82.01
2019-05-10T12:16:35.796Z,82.08
2019-05-10T12:19:14.906Z,81.75
2019-05-10T12:21:34.529Z,79.72
2019-05-10T12:24:26.363Z,78.08
2019-05-10T12:27:13.878Z,74.90
2019-05-10T12:29:12.292Z,70.93
2019-05-10T12:31:36.363Z,70.08
2019-05-10T12:34:09.050Z,70.61
2019-05-10T12:36:34.971Z,68.83
2019-05-10T12:39:06.783Z,72.24
2019-05-10T12:41:39.703Z,64.97
2019-05-10T12:44:07.406Z,61.53
2019-05-10T12:46:41.393Z,61.65
2019-05-10T12:49:07.433Z,62.74
2019-05-10T12:51:36.019Z,60.26
2019-05-10T12:54:04.614Z,62.08
2019-05-10T12:56:35.159Z,62.61
2019-05-10T12:59:03.226Z,63.36
2019-05-10T13:01:34.380Z,65.59
2019-05-10T13:04:13.885Z,59.35
2019-05-10T13:06:36.157Z,63.53
2019-05-10T13:09:09.090Z,65.38
2019-05-10T13:11:37.658Z,60.62
2019-05-10T13:14:09.721Z,62.58
2019-05-10T13:16:38.222Z,60.75
2019-05-10T13:19:06.825Z,60.81
2019-05-10T13:21:35.273Z,63.21
2019-05-10T13:24:06.861Z,64.68
2019-05-10T13:26:37.881Z,61.67
2019-05-10T13:29:10.310Z,57.73
2019-05-10T13:31:42.897Z,58.57
2019-05-10T13:34:10.386Z,63.12
2019-05-10T13:36:39.338Z,64.46
2019-05-10T13:39:12.344Z,63.86
2019-05-10T13:41:40.852Z,65.44
2019-05-10T13:44:11.662Z,62.83
2019-05-10T13:46:39.777Z,67.53
2019-05-10T13:49:08.447Z,67.78
2019-05-10T13:51:36.961Z,67.98
2019-05-10T13:54:08.280Z,68.51
2019-05-10T13:56:36.705Z,66.97
2019-05-10T13:59:15.815Z,67.98
2019-05-10T14:01:35.258Z,63.51
2019-05-10T14:04:04.391Z,63.64
2019-05-10T14:06:32.862Z,64.22
2019-05-10T14:09:02.996Z,64.93
2019-05-10T14:11:34.235Z,61.93
2019-05-10T14:14:01.790Z,61.04
2019-05-10T14:16:30.499Z,59.99
2019-05-10T14:18:58.893Z,54.25
2019-05-10T14:21:30.346Z,59.11
2019-05-10T14:23:58.725Z,60.33
2019-05-10T14:26:27.130Z,61.19
2019-05-10T14:28:55.637Z,59.83
2019-05-10T14:31:26.207Z,60.85
2019-05-10T14:36:25.005Z,61.43
2019-05-10T14:38:56.040Z,59.91
2019-05-10T14:41:23.720Z,60.55
2019-05-10T14:43:52.152Z,61.58
2019-05-10T14:46:20.633Z,60.66
2019-05-10T14:48:49.054Z,62.01
2019-05-10T14:57:01.503Z,60.05
2019-05-10T15:02:22.792Z,57.64
2019-05-10T15:04:52.252Z,56.67
2019-05-10T15:07:20.666Z,59.25
2019-05-10T15:09:54.190Z,58.31
2019-05-10T15:12:22.506Z,55.37
2019-05-10T15:14:49.523Z,55.38
2019-05-10T15:17:20.080Z,54.90
2019-05-10T15:19:56.260Z,55.33
2019-05-10T15:22:22.901Z,57.80
2019-05-10T15:24:48.345Z,57.85
2019-05-10T15:27:21.796Z,55.43
2019-05-10T15:29:46.930Z,54.49
2019-05-10T15:32:15.338Z,55.56
2019-05-10T15:35:04.271Z,55.58
2019-05-10T15:37:17.767Z,53.70
2019-05-10T15:39:49.303Z,53.67
2019-05-10T15:42:21.932Z,52.61
2019-05-10T15:44:49.526Z,53.84
2019-05-10T15:47:20.351Z,54.95
2019-05-10T15:49:54.514Z,55.98
2019-05-10T15:52:23.380Z,53.77
2019-05-10T15:54:50.075Z,53.75
2019-05-10T15:57:20.362Z,54.17
2019-05-10T15:59:56.779Z,55.31
2019-05-10T16:02:21.650Z,54.47
2019-05-10T16:04:50.074Z,54.77
2019-05-10T16:07:18.483Z,54.34
2019-05-10T16:09:50.040Z,54.36
2019-05-10T16:12:17.143Z,56.06
2019-05-10T16:14:47.197Z,55.75
2019-05-10T16:17:23.794Z,55.47
2019-05-10T16:19:58.904Z,55.23
2019-05-10T16:22:25.353Z,55.14
2019-05-10T16:25:00.973Z,54.99
2019-05-10T16:27:24.093Z,56.97
2019-05-10T16:29:52.602Z,58.34
2019-05-10T16:32:21.067Z,57.45
2019-05-10T16:34:49.605Z,56.69
2019-05-10T16:37:17.972Z,58.65
2019-05-10T16:39:46.452Z,59.68
2019-05-10T16:42:16.395Z,60.21
2019-05-10T16:44:44.777Z,59.81
2019-05-10T16:47:13.197Z,60.15
2019-05-10T16:49:41.682Z,59.14
2019-05-10T16:52:10.147Z,56.24
2019-05-10T16:54:41.399Z,58.08
2019-05-10T16:57:11.120Z,58.64
2019-05-10T16:59:39.436Z,59.18
2019-05-10T17:02:07.882Z,60.91
2019-05-10T17:04:37.459Z,63.09
2019-05-10T17:07:06.478Z,60.26
2019-05-10T17:09:34.855Z,61.86
2019-05-10T17:12:06.673Z,64.77
2019-05-10T17:14:35.046Z,62.81
2019-05-10T17:17:04.302Z,62.18
2019-05-10T17:19:34.200Z,61.97
2019-05-10T17:22:02.970Z,61.91
2019-05-10T17:24:31.394Z,62.40
2019-05-10T17:27:01.476Z,61.01
2019-05-10T17:29:32.546Z,61.10
2019-05-10T17:32:00.945Z,61.09
2019-05-10T17:34:34.118Z,60.05
2019-05-10T17:37:04.396Z,60.35
2019-05-10T17:39:34.191Z,60.50
2019-05-10T17:42:04.666Z,61.10
2019-05-10T17:44:32.744Z,61.04
2019-05-10T17:47:01.128Z,62.75
2019-05-10T17:49:29.664Z,63.47
2019-05-10T17:51:58.230Z,63.32
2019-05-10T17:54:26.724Z,63.12
2019-05-10T17:56:55.222Z,63.49
2019-05-10T17:59:23.641Z,63.57
2019-05-10T18:01:53.055Z,63.54
2019-05-10T18:04:21.588Z,63.70
2019-05-10T18:06:50.038Z,64.09
2019-05-10T18:09:19.939Z,64.55
2019-05-10T18:11:48.456Z,64.60
2019-05-10T18:14:17.827Z,65.10
2019-05-10T18:16:48.566Z,65.67
2019-05-10T18:19:23.966Z,65.94
2019-05-10T18:21:54.797Z,66.27
2019-05-10T18:24:23.723Z,66.60
2019-05-10T18:26:53.850Z,67.16
2019-05-10T18:29:22.266Z,67.68
2019-05-10T18:31:55.761Z,67.94
2019-05-10T18:34:26.398Z,68.35
2019-05-10T18:36:58.813Z,68.93
2019-05-10T18:39:27.181Z,69.18
2019-05-10T18:41:55.590Z,69.79
2019-05-10T18:44:24.019Z,70.09
2019-05-10T18:46:52.521Z,70.38
2019-05-10T18:49:21.111Z,70.74
2019-05-10T18:51:51.298Z,71.16
2019-05-10T18:54:19.714Z,71.36
2019-05-10T18:56:48.210Z,71.66
2019-05-10T18:59:18.463Z,71.83
2019-05-10T19:01:50.079Z,72.16
2019-05-10T19:04:20.905Z,72.42
2019-05-10T19:06:49.898Z,72.49
2019-05-10T19:09:19.417Z,72.52
2019-05-10T19:11:47.822Z,72.38
2019-05-10T19:14:16.338Z,72.26
2019-05-10T19:16:44.720Z,72.05
2019-05-10T19:19:15.550Z,72.02
2019-05-10T19:21:43.944Z,72.12
2019-05-10T19:24:13.882Z,72.33
2019-05-10T19:26:42.299Z,72.50
2019-05-10T19:29:10.827Z,72.37
2019-05-10T19:31:43.979Z,72.55
2019-05-10T19:34:15.188Z,72.68
2019-05-10T19:36:42.518Z,72.58
2019-05-10T19:39:11.007Z,72.97
2019-05-10T19:41:43.696Z,73.43
2019-05-10T19:44:12.079Z,73.58
2019-05-10T19:46:40.911Z,73.41
2019-05-10T19:49:13.252Z,73.56
2019-05-10T19:51:42.032Z,73.83
2019-05-10T19:54:13.608Z,74.16
2019-05-10T19:56:39.904Z,74.65
2019-05-10T19:59:11.654Z,74.61
2019-05-10T20:01:38.451Z,75.23
2019-05-10T20:04:09.377Z,75.97
2019-05-10T20:06:37.178Z,75.35
2019-05-10T20:09:10.170Z,74.92
2019-05-10T20:11:38.647Z,74.85
2019-05-10T20:14:07.653Z,74.91
2019-05-10T20:16:52.300Z,75.05
2019-05-10T20:19:09.488Z,75.26
2019-05-10T20:21:40.590Z,75.07
2019-05-10T20:24:09.278Z,75.57
2019-05-10T20:26:37.848Z,75.51
2019-05-10T20:29:06.245Z,75.22
2019-05-10T20:31:34.636Z,75.48
2019-05-10T20:34:03.043Z,75.24
2019-05-10T20:36:31.565Z,75.29
2019-05-10T20:39:02.255Z,76.43
2019-05-10T20:41:30.719Z,76.87
2019-05-10T20:43:59.657Z,77.59
2019-05-10T20:46:28.079Z,76.56
2019-05-10T20:48:56.540Z,75.75
2019-05-10T20:51:24.938Z,75.80
2019-05-10T20:53:53.443Z,75.61
2019-05-10T20:56:21.877Z,75.37
2019-05-10T20:58:50.323Z,75.65
2019-05-10T21:01:18.724Z,76.16
2019-05-10T21:03:47.382Z,76.67
2019-05-10T21:06:16.000Z,76.30
2019-05-10T21:08:44.392Z,77.16
2019-05-10T21:11:12.994Z,76.04
2019-05-10T21:13:41.406Z,75.87
2019-05-10T21:16:10.097Z,76.82
2019-05-10T21:18:38.487Z,76.30
2019-05-10T21:21:08.494Z,75.72
2019-05-10T21:23:36.874Z,76.22
2019-05-10T21:26:06.853Z,75.70
2019-05-10T21:28:35.819Z,75.60
2019-05-10T21:31:04.242Z,75.67
2019-05-10T21:33:32.720Z,75.41
2019-05-10T21:36:01.140Z,75.99
2019-05-10T21:38:33.992Z,77.13
2019-05-10T21:41:02.496Z,77.33
2019-05-10T21:43:31.100Z,79.22
2019-05-10T21:45:59.499Z,78.03
2019-05-10T21:48:28.381Z,79.32
2019-05-10T21:50:57.681Z,78.40
2019-05-10T21:53:26.206Z,78.21
2019-05-10T21:55:54.624Z,77.94
2019-05-10T21:58:23.362Z,78.22
2019-05-10T22:00:53.649Z,78.01
2019-05-10T22:03:22.162Z,78.33
2019-05-10T22:05:57.974Z,78.36
2019-05-10T22:08:26.570Z,78.26
2019-05-10T22:10:56.689Z,78.33
2019-05-10T22:13:25.126Z,78.55
2019-05-10T22:15:53.576Z,79.60
2019-05-10T22:18:22.338Z,80.53
2019-05-10T22:20:50.804Z,80.77
2019-05-10T22:23:19.256Z,80.87
2019-05-10T22:25:47.686Z,80.60
2019-05-10T22:28:16.115Z,81.21
2019-05-10T22:30:45.508Z,80.81
2019-05-10T22:33:15.424Z,80.95
2019-05-10T22:35:43.896Z,82.31
2019-05-10T22:38:12.430Z,82.89
2019-05-10T22:40:40.930Z,83.53
2019-05-10T22:43:09.343Z,84.04
2019-05-10T22:45:37.833Z,84.46
2019-05-10T22:48:06.229Z,84.46
2019-05-10T22:50:34.677Z,84.55
2019-05-10T22:53:03.272Z,83.87
2019-05-10T22:55:31.718Z,84.92
2019-05-10T22:58:00.117Z,85.25
2019-05-10T23:00:28.685Z,84.93
2019-05-10T23:02:57.117Z,85.26
2019-05-10T23:05:25.542Z,85.53
2019-05-10T23:07:53.963Z,86.26
2019-05-10T23:10:22.513Z,86.34
2019-05-10T23:12:50.969Z,86.33
2019-05-10T23:15:19.400Z,85.92
2019-05-10T23:17:47.824Z,85.46
2019-05-10T23:20:17.940Z,85.67
2019-05-10T23:22:46.367Z,85.80
2019-05-10T23:25:14.797Z,85.56
2019-05-10T23:27:43.290Z,85.67
2019-05-10T23:30:11.934Z,85.79
2019-05-10T23:32:40.525Z,86.50
2019-05-10T23:35:09.072Z,86.72
2019-05-10T23:37:37.507Z,86.98
2019-05-10T23:40:07.868Z,87.24
2019-05-10T23:42:36.346Z,87.40
2019-05-10T23:45:06.793Z,87.39
2019-05-10T23:47:35.237Z,88.03
2019-05-10T23:50:05.247Z,88.51
2019-05-10T23:52:33.690Z,88.67
2019-05-10T23:55:02.127Z,88.82
2019-05-10T23:57:30.574Z,88.92
2019-05-10T23:59:58.998Z,89.08
